Time;durP1;ratioP1;P1;durP2;ratioP2;P2;SDS_P1;SDS_P2;PMS_P1;PMS_P2;Temp;Humidity;BMP_temperature;BMP_pressure;BME280_temperature;BME280_humidity;BME280_pressure;Samples;Min_cycle;Max_cycle;Signal;HPM_P1;HPM_P2
2021/11/21 00:05:03;;;;;;;0.20;0.20;;;8.90;94.00;7.90;101400.00;;;;31157984;28;20784;-75
2021/11/21 00:20:05;;;;;;;0.38;0.38;;;9.00;93.60;7.90;101387.00;;;;31103947;28;20049;-75
2021/11/21 00:35:07;;;;;;;0.25;0.25;;;8.60;93.50;7.90;101365.00;;;;31104041;28;20081;-75
2021/11/21 00:50:12;;;;;;;0.20;0.20;;;8.90;94.10;7.90;101345.00;;;;31100039;28;20483;-75
2021/11/21 01:05:15;;;;;;;0.20;0.20;;;8.90;93.90;7.80;101313.00;;;;31090059;28;20136;-74
2021/11/21 01:20:19;;;;;;;0.20;0.20;;;8.90;94.20;7.80;101319.00;;;;31087621;28;20045;-73
2021/11/21 01:35:20;;;;;;;0.20;0.20;;;8.80;94.60;8.00;101315.00;;;;31059571;28;20054;-74
2021/11/21 01:50:36;;;;;;;0.88;0.88;;;9.10;94.80;8.00;101311.00;;;;31062934;28;20047;-74
2021/11/21 02:05:37;;;;;;;;;;;9.10;94.50;8.10;101287.00;;;;31070571;28;20059;-75
2021/11/21 02:28:14;;;;;;;0.20;0.20;;;9.20;94.40;8.10;101253.00;;;;31200243;28;20439;-76
2021/11/21 02:43:17;;;;;;;0.38;0.38;;;9.10;94.20;8.10;101234.00;;;;31097397;28;20472;-76
2021/11/21 02:58:19;;;;;;;0.20;0.20;;;9.10;94.30;8.00;101206.00;;;;31082795;28;20732;-75
2021/11/21 03:13:24;;;;;;;0.20;0.20;;;9.10;94.20;8.00;101177.00;;;;31086551;28;20046;-75
2021/11/21 03:28:26;;;;;;;;;;;9.00;94.30;8.00;101179.00;;;;31025982;28;20169;-76
2021/11/21 03:53:21;;;;;;;0.15;0.15;;;9.10;94.50;8.10;101131.00;;;;31601951;27;20417;-76
2021/11/21 04:08:23;;;;;;;0.30;0.30;;;10.00;94.60;8.10;101136.00;;;;31549542;27;20445;-76
2021/11/21 04:23:28;;;;;;;0.22;0.22;;;9.20;94.50;8.10;101120.00;;;;31554334;28;20177;-76
2021/11/21 04:38:29;;;;;;;0.20;0.20;;;9.20;94.60;8.10;101100.00;;;;31547381;27;20391;-76
2021/11/21 04:53:34;;;;;;;0.13;0.13;;;;;8.20;101093.00;;;;31507957;27;20044;-76
2021/11/21 05:18:19;;;;;;;0.13;0.13;;;9.20;94.50;8.20;101080.00;;;;31512157;27;20802;-73
2021/11/21 05:33:21;;;;;;;0.20;0.20;;;9.30;95.10;8.20;101090.00;;;;31346867;28;20544;-74
2021/11/21 05:48:24;;;;;;;0.20;0.20;;;9.20;95.10;8.30;101100.00;;;;31333605;28;20190;-72
2021/11/21 06:03:25;;;;;;;0.10;0.10;;;9.30;95.20;8.20;101089.00;;;;31306959;28;20161;-74
2021/11/21 06:18:27;;;;;;;0.37;0.37;;;9.30;95.20;8.30;101083.00;;;;31202073;28;20045;-74
2021/11/21 06:33:28;;;;;;;0.10;0.10;;;9.30;95.50;8.30;101090.00;;;;31168500;28;20898;-73
2021/11/21 06:48:31;;;;;;;0.10;0.10;;;9.40;95.60;8.40;101090.00;;;;31135202;28;20419;-74
2021/11/21 07:03:31;;;;;;;0.20;0.20;;;9.50;95.80;8.40;101092.00;;;;31141961;28;20060;-74
2021/11/21 07:18:32;;;;;;;0.30;0.30;;;9.40;95.40;8.40;101103.00;;;;31175821;28;20049;-74
2021/11/21 07:33:34;;;;;;;0.13;0.13;;;9.40;95.40;8.40;101123.00;;;;31280325;28;20041;-74
2021/11/21 07:48:36;;;;;;;0.30;0.30;;;9.40;95.40;8.40;101140.00;;;;31193327;28;20057;-73
2021/11/21 08:03:38;;;;;;;0.20;0.20;;;9.40;95.60;8.30;101124.00;;;;31154583;28;20990;-74
2021/11/21 08:18:41;;;;;;;0.20;0.20;;;9.50;95.50;8.40;101140.00;;;;31160159;28;20123;-75
2021/11/21 08:33:43;;;;;;;0.28;0.28;;;9.50;95.50;8.60;101145.00;;;;31164287;28;20188;-75
2021/11/21 08:48:47;;;;;;;0.20;0.20;;;9.60;95.40;8.70;101164.00;;;;31258487;28;20049;-75
2021/11/21 09:03:48;;;;;;;0.20;0.20;;;9.70;95.60;8.90;101162.00;;;;31278349;28;20107;-75
2021/11/21 09:18:49;;;;;;;0.17;0.17;;;9.90;95.30;9.00;101178.00;;;;31178299;28;20099;-75
2021/11/21 09:33:51;;;;;;;0.20;0.20;;;10.00;95.70;9.00;101180.00;;;;31154710;28;20041;-75
2021/11/21 09:48:53;;;;;;;0.10;0.10;;;10.10;94.10;9.10;101185.00;;;;31215949;28;20052;-75
2021/11/21 10:03:54;;;;;;;0.10;0.10;;;9.90;92.90;9.00;101196.00;;;;31230770;28;20204;-76
2021/11/21 10:19:06;;;;;;;0.10;0.10;;;10.00;93.20;9.00;101189.00;;;;31158579;28;20516;-76
2021/11/21 10:34:07;;;;;;;0.17;0.17;;;10.10;92.90;9.20;101181.00;;;;31159414;28;20065;-76
2021/11/21 10:49:32;;;;;;;0.10;0.10;;;10.30;92.60;9.40;101174.00;;;;31160422;28;20634;-77
2021/11/21 11:04:33;;;;;;;0.10;0.10;;;10.40;90.80;9.40;101173.00;;;;31141281;28;20053;-77
2021/11/21 11:19:35;;;;;;;0.20;0.20;;;10.40;91.00;9.60;101181.00;;;;31149046;28;20072;-77
2021/11/21 11:34:37;;;;;;;4.30;1.88;;;10.60;86.30;9.60;101186.00;;;;31154056;28;20060;-78
2021/11/21 11:49:39;;;;;;;2.63;0.47;;;10.40;88.10;9.30;101191.00;;;;31167427;28;20064;-78
2021/11/21 12:04:44;;;;;;;0.20;0.20;;;10.30;87.40;9.40;101203.00;;;;31149569;28;20057;-78
2021/11/21 12:19:53;;;;;;;0.10;0.10;;;10.40;87.90;9.40;101195.00;;;;31147316;28;20120;-78
2021/11/21 12:34:58;;;;;;;0.20;0.20;;;10.40;87.60;9.50;101190.00;;;;31138779;28;20228;-78
2021/11/21 12:49:59;;;;;;;0.20;0.20;;;10.50;87.60;9.50;101181.00;;;;31140513;28;20693;-79
2021/11/21 13:05:03;;;;;;;0.20;0.20;;;10.40;88.70;9.60;101173.00;;;;31146620;28;20572;-79
2021/11/21 13:20:14;;;;;;;0.20;0.20;;;10.70;88.20;9.90;101176.00;;;;31122508;28;20080;-77
2021/11/21 13:35:19;;;;;;;0.10;0.10;;;10.70;87.70;9.70;101163.00;;;;31149343;28;20063;-78
2021/11/21 13:50:32;;;;;;;0.10;0.10;;;10.80;87.70;9.80;101175.00;;;;31153686;28;20049;-79
2021/11/21 14:05:35;;;;;;;0.10;0.10;;;11.30;89.00;9.50;101191.00;;;;31143674;28;20076;-78
2021/11/21 14:20:42;;;;;;;0.20;0.20;;;10.50;79.90;9.50;101193.00;;;;31170313;28;20049;-78
2021/11/21 14:35:46;;;;;;;0.75;0.32;;;10.50;81.70;9.50;101200.00;;;;31275207;28;20551;-78
2021/11/21 14:50:48;;;;;;;0.20;0.20;;;10.40;81.30;9.50;101209.00;;;;31181461;28;20044;-79
2021/11/21 15:05:50;;;;;;;0.10;0.10;;;10.10;81.90;9.10;101225.00;;;;31133669;28;20062;-78
2021/11/21 15:20:51;;;;;;;0.10;0.10;;;9.70;83.00;8.50;101252.00;;;;31145846;28;20061;-76
2021/11/21 15:35:52;;;;;;;0.20;0.20;;;9.40;85.90;7.90;101265.00;;;;31262632;28;20045;-75
2021/11/21 15:50:54;;;;;;;0.10;0.10;;;8.80;89.20;7.60;101278.00;;;;31174465;28;20729;-75
2021/11/21 16:05:55;;;;;;;0.10;0.10;;;8.20;90.10;7.20;101288.00;;;;31097421;28;20053;-76
2021/11/21 16:20:56;;;;;;;0.10;0.10;;;8.30;89.90;6.90;101300.00;;;;31125887;28;20136;-76
2021/11/21 16:35:57;;;;;;;0.20;0.20;;;7.80;90.50;6.60;101329.00;;;;31137442;28;20058;-75
2021/11/21 16:50:58;;;;;;;0.28;0.28;;;7.70;90.20;6.40;101333.00;;;;31126077;28;20178;-76
2021/11/21 17:05:59;;;;;;;0.20;0.20;;;7.30;91.10;6.00;101363.00;;;;31142490;28;20503;-75
2021/11/21 17:21:00;;;;;;;0.20;0.20;;;8.10;91.90;5.60;101376.00;;;;31142479;28;20050;-74
2021/11/21 17:36:02;;;;;;;0.22;0.22;;;6.70;91.50;5.20;101386.00;;;;31109063;28;20607;-75
2021/11/21 17:51:04;;;;;;;0.17;0.17;;;6.30;91.70;4.90;101410.00;;;;31117788;28;20483;-75
2021/11/21 18:06:05;;;;;;;0.22;0.22;;;6.10;91.80;4.70;101424.00;;;;31120615;28;20160;-75
2021/11/21 18:21:08;;;;;;;0.20;0.20;;;5.90;91.80;4.50;101431.00;;;;31134300;28;20049;-75
2021/11/21 18:36:09;;;;;;;0.32;0.32;;;5.80;92.10;4.30;101454.00;;;;31208627;28;20303;-75
2021/11/21 18:51:16;;;;;;;0.28;0.28;;;5.60;92.00;4.20;101475.00;;;;31198717;28;20045;-76
2021/11/21 19:06:17;;;;;;;0.30;0.30;;;5.40;92.00;4.00;101492.00;;;;31257449;28;20057;-76
2021/11/21 19:21:19;;;;;;;0.30;0.30;;;5.20;92.80;3.80;101500.00;;;;31234977;28;20635;-76
2021/11/21 19:36:20;;;;;;;0.20;0.20;;;5.10;92.70;3.60;101516.00;;;;31254280;28;20037;-76
2021/11/21 19:51:22;;;;;;;0.20;0.20;;;4.90;92.90;3.40;101521.00;;;;31151826;28;20159;-76
2021/11/21 20:06:26;;;;;;;0.20;0.20;;;4.70;93.30;3.20;101539.00;;;;31137891;28;20065;-76
2021/11/21 20:21:27;;;;;;;0.20;0.20;;;4.60;93.70;3.00;101560.00;;;;31203045;28;20607;-76
2021/11/21 20:36:30;;;;;;;0.20;0.20;;;4.40;92.70;2.90;101578.00;;;;31160759;28;20048;-76
2021/11/21 20:51:31;;;;;;;0.20;0.20;;;4.10;93.30;2.80;101592.00;;;;31230171;28;20203;-76
2021/11/21 21:06:33;;;;;;;0.22;0.22;;;4.10;93.10;2.70;101605.00;;;;31174113;28;20060;-77
2021/11/21 21:21:35;;;;;;;0.30;0.30;;;3.70;94.80;2.70;101605.00;;;;31226833;28;20056;-76
2021/11/21 21:36:36;;;;;;;0.40;0.40;;;4.10;93.20;2.60;101633.00;;;;31162676;28;20042;-76
2021/11/21 21:51:37;;;;;;;0.20;0.20;;;4.00;93.70;2.70;101652.00;;;;31246077;28;20059;-76
2021/11/21 22:06:39;;;;;;;0.30;0.30;;;4.20;93.60;2.80;101673.00;;;;31105914;28;20068;-76
2021/11/21 22:21:40;;;;;;;0.30;0.30;;;4.10;93.60;2.70;101688.00;;;;31132535;28;20115;-76
2021/11/21 22:36:42;;;;;;;0.22;0.22;;;3.50;94.00;2.70;101709.00;;;;31146260;28;20053;-76
2021/11/21 22:51:43;;;;;;;0.30;0.30;;;4.20;94.50;2.80;101734.00;;;;31134397;28;20120;-76
2021/11/21 23:06:44;;;;;;;0.20;0.20;;;4.40;94.00;3.10;101759.00;;;;31141756;28;20053;-76
2021/11/21 23:21:49;;;;;;;0.20;0.20;;;4.60;94.40;3.40;101778.00;;;;31150472;28;20044;-76
2021/11/21 23:36:54;;;;;;;0.20;0.20;;;4.70;95.80;3.70;101812.00;;;;31149016;28;20674;-76
2021/11/21 23:51:56;;;;;;;0.28;0.28;;;5.10;95.00;4.00;101828.00;;;;31186822;28;20045;-76
